Lilly Dale, Indiana
Current Conditions -  °F | °C
As of 2:15 AM on Thursday 27 Nov 2014 (Local Time) from KHNB Reporting Station
Overcast Overcast  
Wind Chill: 23°   Ceiling: 500
Heat Index: 32°   Visibility: 2.5mi
Dew Point: 28°   Wind: 12mph
Humidity: 87%   Direction: 350°N
Pressure: 30.17"   Gusts: NA
Location:  38.0217°N, 86.7099°W
Report Text: KHNB 270815Z AUTO 35010KT 2 1/2SM OVC005 00/M02 A3017 RMK AO1
Loading
Personal Weather Stations






























Interactive Weather Map New forecast layout! Learn more

10-Day Weather Forecast

Advertisements
Track Severe Weather on mobile